SBJP/JPA METAR and TAF weather

Enter ICAO airport designator
Station Type Date Time Source
SBJP METAR 2021/03/08 00:00 UTC NOAA

SBJP 080000Z 11005KT 9999 SCT020 26/25 Q1013


Station Type Date Time Source
SBJP Decoded METAR 2021/03/08 00:00 UTC NOAA

Joao Pessoa, Brazil (SBJP) 07-06S 034-52W
Mar 07, 2021 - 07:00 PM EST / 2021.03.08 0000 UTC
Wind: from the ESE (110 degrees) at 6 MPH (5 KT):0
Visibility: greater than 7 mile(s):0
Sky conditions: partly cloudy
Temperature: 78 F (26 C)
Dew Point: 77 F (25 C)
Relative Humidity: 94%
Pressure (altimeter): 29.91 in. Hg (1013 hPa)
ob: SBJP 080000Z 11005KT 9999 SCT020 26/25 Q1013
cycle: 0

Station Type Date Time Source
SBJP TAF 2021/03/07 18:59 UTC NOAA

TAF SBJP 071600Z 0718/0818 10010KT 9999 SCT030 TN25/0808Z TX29/0818Z
BECMG 0718/0720 08010KT
BECMG 0800/0802 10005KT
BECMG 0806/0808 20004KT
BECMG 0812/0814 11010KT
RMK PGW

Example: see airport list